Havre-Saint-Pierre, Canada
Current Conditions -  °F | °C
As of 6:00 AM on Wednesday 22 Oct 2014 (Local Time) from CYGV Reporting Station
Clear Clear  
Wind Chill: 21°   Ceiling: Unl
Heat Index: 28°   Visibility: 9mi
Dew Point: 28°   Wind: 7mph
Humidity: 100%   Direction: 360°N
Pressure: 30.46"   Gusts: NA
Location:  50.25°N, 63.58°W
Report Text: CYGV 220900Z AUTO 36006KT 9SM CLR M02/M02 A3046 RMK SLP316
Loading
Personal Weather Stations






























Interactive Weather Map
Tropical Storm Tracking
New forecast layout! Learn more

10-Day Weather Forecast

Advertisements
Track Severe Weather on mobile